createdAt,value
2022-12-13T00:00:42.611Z,31.10
2022-12-13T00:03:50.153Z,29.90
2022-12-13T00:06:57.781Z,30.60
2022-12-13T00:10:05.772Z,29.00
2022-12-13T00:13:13.429Z,28.10
2022-12-13T00:16:21.115Z,31.30
2022-12-13T00:19:28.683Z,29.70
2022-12-13T00:22:36.237Z,28.40
2022-12-13T00:25:43.706Z,34.60
2022-12-13T00:28:51.415Z,35.30
2022-12-13T00:32:01.049Z,28.80
2022-12-13T00:35:08.555Z,29.10
2022-12-13T00:38:16.076Z,33.30
2022-12-13T00:41:23.833Z,32.60
2022-12-13T00:44:31.241Z,32.90
2022-12-13T00:47:38.826Z,30.60
2022-12-13T00:50:46.937Z,31.50
2022-12-13T00:53:54.129Z,26.70
2022-12-13T00:57:02.304Z,32.10
2022-12-13T01:00:09.757Z,31.40
2022-12-13T01:03:16.996Z,31.30
2022-12-13T01:06:24.981Z,31.90
2022-12-13T01:09:33.109Z,30.90
2022-12-13T01:12:40.380Z,29.90
2022-12-13T01:15:48.304Z,30.30
2022-12-13T01:18:56.411Z,35.10
2022-12-13T01:22:03.507Z,33.40
2022-12-13T01:25:11.160Z,32.60
2022-12-13T01:28:21.341Z,32.10
2022-12-13T01:31:28.737Z,30.70
2022-12-13T01:34:36.491Z,29.20
2022-12-13T01:37:43.815Z,29.90
2022-12-13T01:40:51.342Z,30.90
2022-12-13T01:43:58.649Z,35.30
2022-12-13T01:47:05.965Z,33.90
2022-12-13T01:50:13.325Z,31.20
2022-12-13T01:53:20.503Z,28.10
2022-12-13T01:56:28.375Z,31.20
2022-12-13T01:59:35.946Z,28.30
2022-12-13T02:02:43.343Z,30.70
2022-12-13T02:05:50.632Z,32.00
2022-12-13T02:08:58.455Z,31.50
2022-12-13T02:12:06.145Z,31.80
2022-12-13T02:15:14.029Z,30.20
2022-12-13T02:18:21.665Z,30.00
2022-12-13T02:21:29.127Z,29.60
2022-12-13T02:24:36.971Z,32.50
2022-12-13T02:27:44.382Z,30.60
2022-12-13T02:30:51.835Z,30.00
2022-12-13T02:33:59.559Z,28.30
2022-12-13T02:37:06.506Z,28.60
2022-12-13T02:40:11.837Z,29.50
2022-12-13T02:43:21.378Z,27.00
2022-12-13T02:46:29.149Z,29.20
2022-12-13T02:49:37.218Z,26.60
2022-12-13T02:52:44.027Z,25.00
2022-12-13T02:55:51.938Z,27.00
2022-12-13T02:58:59.444Z,24.30
2022-12-13T03:02:09.673Z,25.40
2022-12-13T03:05:07.300Z,24.00
2022-12-13T03:08:14.627Z,26.00
2022-12-13T03:11:22.463Z,24.80
2022-12-13T03:14:31.830Z,24.50
2022-12-13T03:17:39.442Z,23.70
2022-12-13T03:20:46.960Z,26.00
2022-12-13T03:23:54.162Z,19.70
2022-12-13T03:27:01.715Z,21.50
2022-12-13T03:30:10.291Z,25.20
2022-12-13T03:33:17.521Z,24.50
2022-12-13T03:36:24.771Z,23.00
2022-12-13T03:39:31.995Z,21.90
2022-12-13T03:42:39.541Z,23.80
2022-12-13T03:45:46.773Z,23.60
2022-12-13T03:48:53.993Z,21.70
2022-12-13T03:52:01.353Z,22.80
2022-12-13T03:55:09.000Z,25.30
2022-12-13T03:58:16.204Z,22.10
2022-12-13T04:01:23.603Z,20.20
2022-12-13T04:04:30.919Z,20.70
2022-12-13T04:07:38.183Z,20.50
2022-12-13T04:10:45.882Z,23.80
2022-12-13T04:13:52.957Z,21.00
2022-12-13T04:17:00.191Z,19.70
2022-12-13T04:20:07.483Z,21.40
2022-12-13T04:23:14.744Z,19.90
2022-12-13T04:26:22.486Z,19.70
2022-12-13T04:29:34.518Z,24.30
2022-12-13T04:32:31.543Z,21.30
2022-12-13T04:35:39.532Z,23.10
2022-12-13T04:38:46.395Z,24.10
2022-12-13T04:41:53.962Z,23.20
2022-12-13T04:45:01.264Z,23.40
2022-12-13T04:48:08.575Z,23.10
2022-12-13T04:51:16.218Z,22.30
2022-12-13T04:54:24.378Z,21.10
2022-12-13T04:57:32.560Z,20.40
2022-12-13T05:00:40.015Z,19.50
2022-12-13T05:03:40.385Z,23.10
2022-12-13T05:06:47.954Z,25.40
2022-12-13T05:09:54.894Z,24.10
2022-12-13T05:13:02.497Z,21.60
2022-12-13T05:16:10.306Z,23.20
2022-12-13T05:19:17.137Z,21.90
2022-12-13T05:22:25.048Z,24.90
2022-12-13T05:25:32.032Z,22.80
2022-12-13T05:28:39.664Z,23.70
2022-12-13T05:31:47.342Z,20.50
2022-12-13T05:34:54.173Z,25.40
2022-12-13T05:38:01.734Z,22.60
2022-12-13T05:41:09.101Z,23.00
2022-12-13T05:44:16.195Z,32.50
2022-12-13T05:47:24.097Z,25.20
2022-12-13T05:50:31.077Z,28.20
2022-12-13T05:53:38.765Z,26.00
2022-12-13T05:56:46.138Z,28.10
2022-12-13T05:59:53.623Z,24.10
2022-12-13T06:03:02.131Z,25.40
2022-12-13T06:06:09.514Z,25.00
2022-12-13T06:09:18.135Z,24.60
2022-12-13T06:12:31.994Z,23.20
2022-12-13T06:15:29.315Z,27.70
2022-12-13T06:18:31.525Z,25.30
2022-12-13T06:21:45.742Z,28.00
2022-12-13T06:24:42.897Z,28.60
2022-12-13T06:27:50.244Z,23.40
2022-12-13T06:30:58.657Z,25.10
2022-12-13T06:34:15.240Z,28.30
2022-12-13T06:37:10.580Z,27.10
2022-12-13T06:40:22.947Z,29.00
2022-12-13T06:43:19.247Z,25.00
2022-12-13T06:46:26.745Z,24.70
2022-12-13T06:49:33.766Z,26.30
2022-12-13T06:52:40.738Z,25.10
2022-12-13T06:55:48.165Z,25.50
2022-12-13T06:59:01.938Z,24.20
2022-12-13T07:02:03.139Z,27.70
2022-12-13T07:05:00.964Z,25.40
2022-12-13T07:08:08.171Z,23.10
2022-12-13T07:11:15.534Z,23.10
2022-12-13T07:14:22.739Z,26.30
2022-12-13T07:17:32.583Z,24.90
2022-12-13T07:20:30.912Z,23.30
2022-12-13T07:23:38.167Z,22.90
2022-12-13T07:26:45.487Z,22.50
2022-12-13T07:29:52.492Z,24.00
2022-12-13T07:32:59.686Z,23.80
2022-12-13T07:36:07.467Z,25.00
2022-12-13T07:39:14.349Z,25.00
2022-12-13T07:42:21.856Z,24.20
2022-12-13T07:45:29.204Z,29.30
2022-12-13T07:48:36.049Z,23.90
2022-12-13T07:51:43.658Z,23.70
2022-12-13T07:54:51.057Z,25.60
2022-12-13T07:57:58.208Z,23.50
2022-12-13T08:01:00.671Z,23.60
2022-12-13T08:04:07.865Z,25.80
2022-12-13T08:07:14.956Z,27.70
2022-12-13T08:10:22.555Z,23.90
2022-12-13T08:13:29.586Z,23.80
2022-12-13T08:16:36.918Z,23.90
2022-12-13T08:19:43.768Z,27.50
2022-12-13T08:22:51.559Z,25.50
2022-12-13T08:25:58.586Z,24.80
2022-12-13T08:29:06.666Z,26.40
2022-12-13T08:32:14.186Z,23.70
2022-12-13T08:35:21.084Z,27.50
2022-12-13T08:38:28.246Z,27.60
2022-12-13T08:41:39.030Z,25.00
2022-12-13T08:44:35.732Z,25.80
2022-12-13T08:47:43.180Z,26.00
2022-12-13T08:50:50.490Z,25.00
2022-12-13T08:54:10.654Z,26.10
2022-12-13T08:57:02.332Z,22.80
2022-12-13T09:00:09.421Z,24.10
2022-12-13T09:03:16.149Z,25.40
2022-12-13T09:06:23.626Z,32.30
2022-12-13T09:09:30.690Z,24.30
2022-12-13T09:12:41.562Z,23.20
2022-12-13T09:15:38.326Z,22.30
2022-12-13T09:18:41.400Z,22.60
2022-12-13T09:21:48.777Z,21.80
2022-12-13T09:24:56.371Z,27.00
2022-12-13T09:27:58.588Z,25.30
2022-12-13T09:31:05.911Z,24.70
2022-12-13T09:34:13.175Z,28.10
2022-12-13T09:37:23.310Z,25.10
2022-12-13T09:40:31.090Z,24.50
2022-12-13T09:43:43.676Z,24.90
2022-12-13T09:46:45.168Z,28.40
2022-12-13T09:49:42.174Z,23.60
2022-12-13T09:52:49.129Z,28.40
2022-12-13T09:56:10.442Z,25.70
2022-12-13T09:59:00.859Z,25.20
2022-12-13T10:02:08.254Z,24.00
2022-12-13T10:05:22.167Z,22.90
2022-12-13T10:08:19.032Z,23.50
2022-12-13T10:11:32.317Z,24.50
2022-12-13T10:14:29.440Z,23.60
2022-12-13T10:17:38.193Z,23.80
2022-12-13T10:20:45.823Z,24.70
2022-12-13T10:24:23.168Z,24.80
2022-12-13T10:26:57.470Z,23.20
2022-12-13T10:30:04.716Z,26.30
2022-12-13T10:33:11.497Z,25.40
2022-12-13T10:36:22.212Z,25.00
2022-12-13T10:39:22.058Z,24.00
2022-12-13T10:42:34.014Z,23.00
2022-12-13T10:45:30.746Z,39.30
2022-12-13T10:48:38.598Z,26.60
2022-12-13T10:51:46.142Z,25.10
2022-12-13T10:54:53.051Z,25.40
2022-12-13T10:57:57.470Z,27.50
2022-12-13T11:01:04.751Z,24.50
2022-12-13T11:04:12.083Z,26.90
2022-12-13T11:07:19.562Z,32.40
2022-12-13T11:10:27.610Z,30.00
2022-12-13T11:13:35.137Z,25.30
2022-12-13T11:16:42.594Z,23.90
2022-12-13T11:19:49.374Z,23.80
2022-12-13T11:22:56.929Z,25.90
2022-12-13T11:26:04.309Z,28.30
2022-12-13T11:29:11.119Z,23.60
2022-12-13T11:32:22.533Z,24.20
2022-12-13T11:35:19.232Z,29.60
2022-12-13T11:38:26.767Z,23.30
2022-12-13T11:41:33.992Z,25.90
2022-12-13T11:44:45.977Z,26.00
2022-12-13T11:47:44.395Z,22.00
2022-12-13T11:50:51.475Z,22.60
2022-12-13T11:53:59.085Z,26.00
2022-12-13T11:57:06.220Z,24.20
2022-12-13T12:00:13.568Z,27.00
2022-12-13T12:03:20.960Z,22.50
2022-12-13T12:06:28.076Z,22.80
2022-12-13T12:09:35.253Z,24.00
2022-12-13T12:12:42.698Z,25.10
2022-12-13T12:15:49.493Z,21.50
2022-12-13T12:18:52.126Z,23.90
2022-12-13T12:22:15.698Z,25.10
2022-12-13T12:25:04.090Z,25.30
2022-12-13T12:28:11.590Z,23.00
2022-12-13T12:31:18.944Z,22.20
2022-12-13T12:34:27.748Z,24.90
2022-12-13T12:37:35.546Z,23.10
2022-12-13T12:43:47.159Z,21.40
2022-12-13T12:47:31.633Z,23.10
2022-12-13T12:49:59.270Z,24.30
2022-12-13T12:53:06.561Z,23.60
2022-12-13T12:56:13.970Z,23.90
2022-12-13T12:59:21.613Z,23.00
2022-12-13T13:02:28.934Z,25.70
2022-12-13T13:05:36.253Z,25.60
2022-12-13T13:08:43.719Z,26.00
2022-12-13T13:11:50.481Z,26.10
2022-12-13T13:14:54.064Z,27.40
2022-12-13T13:18:01.594Z,27.30
2022-12-13T13:21:08.430Z,27.00
2022-12-13T13:24:15.860Z,26.40
2022-12-13T13:27:23.415Z,27.70
2022-12-13T13:30:30.336Z,27.70
2022-12-13T13:33:37.841Z,28.40
2022-12-13T13:36:44.985Z,22.20
2022-12-13T13:39:52.016Z,26.30
2022-12-13T13:43:00.446Z,24.00
2022-12-13T13:46:07.584Z,23.80
2022-12-13T13:49:14.808Z,26.20
2022-12-13T13:52:26.157Z,22.10
2022-12-13T13:55:22.973Z,24.80
2022-12-13T13:58:30.006Z,25.30
2022-12-13T14:01:37.228Z,24.10
2022-12-13T14:04:44.523Z,23.90
2022-12-13T14:07:51.764Z,26.30
2022-12-13T14:10:58.924Z,21.30
2022-12-13T14:14:06.613Z,23.50
2022-12-13T14:17:11.024Z,21.40
2022-12-13T14:20:18.114Z,21.40
2022-12-13T14:23:25.821Z,21.50
2022-12-13T14:26:32.838Z,24.10
2022-12-13T14:29:40.459Z,23.60
2022-12-13T14:32:44.957Z,24.30
2022-12-13T14:35:51.825Z,27.10
2022-12-13T14:38:59.228Z,25.70
2022-12-13T14:42:06.617Z,27.20
2022-12-13T14:45:13.620Z,22.70
2022-12-13T14:48:28.057Z,25.50
2022-12-13T14:51:25.278Z,26.50
2022-12-13T14:54:31.996Z,29.20
2022-12-13T14:57:39.491Z,33.30
2022-12-13T15:00:46.639Z,28.30
2022-12-13T15:03:53.841Z,28.10
2022-12-13T15:07:01.307Z,25.20
2022-12-13T15:10:08.598Z,24.30
2022-12-13T15:13:15.839Z,29.40
2022-12-13T15:16:23.707Z,25.40
2022-12-13T15:19:35.065Z,31.30
2022-12-13T15:22:34.073Z,34.60
2022-12-13T15:25:41.231Z,30.80
2022-12-13T15:28:48.423Z,32.30
2022-12-13T15:31:55.632Z,34.30
2022-12-13T15:35:02.724Z,33.70
2022-12-13T15:38:09.888Z,36.70
2022-12-13T15:41:17.286Z,34.30
2022-12-13T15:44:24.246Z,37.70
2022-12-13T15:47:31.631Z,32.50
2022-12-13T15:50:41.041Z,34.70
2022-12-13T15:53:41.940Z,38.50
2022-12-13T15:56:49.383Z,36.20
2022-12-13T15:59:56.081Z,39.10
2022-12-13T16:03:08.917Z,38.20
2022-12-13T16:06:06.491Z,39.40
2022-12-13T16:09:13.556Z,38.70
2022-12-13T16:12:21.009Z,40.60
2022-12-13T16:15:28.985Z,41.80
2022-12-13T16:18:36.910Z,39.50
2022-12-13T16:21:43.950Z,36.50
2022-12-13T16:24:51.009Z,41.50
2022-12-13T16:27:58.124Z,43.90
2022-12-13T16:31:06.243Z,43.00
2022-12-13T16:34:13.406Z,42.20
2022-12-13T16:37:25.561Z,36.90
2022-12-13T16:40:23.600Z,39.00
2022-12-13T16:43:34.365Z,41.40
2022-12-13T16:47:17.504Z,41.30
2022-12-13T16:49:35.673Z,37.70
2022-12-13T16:52:42.742Z,35.70
2022-12-13T16:55:58.750Z,36.20
2022-12-13T16:58:54.072Z,38.50
2022-12-13T17:02:01.122Z,37.90
2022-12-13T17:05:08.193Z,32.70
2022-12-13T17:08:15.312Z,36.10
2022-12-13T17:11:23.540Z,36.40
2022-12-13T17:14:30.967Z,34.80
2022-12-13T17:17:38.287Z,35.30
2022-12-13T17:20:45.774Z,35.50
2022-12-13T17:23:50.504Z,40.50
2022-12-13T17:26:57.665Z,38.30
2022-12-13T17:30:05.462Z,33.90
2022-12-13T17:33:12.466Z,37.10
2022-12-13T17:36:20.178Z,38.10
2022-12-13T17:39:27.260Z,38.90
2022-12-13T17:42:34.145Z,37.70
2022-12-13T17:45:42.094Z,36.10
2022-12-13T17:48:50.323Z,34.80
2022-12-13T17:51:57.414Z,37.00
2022-12-13T17:55:05.077Z,38.50
2022-12-13T17:58:12.628Z,38.20
2022-12-13T18:01:20.255Z,33.60
2022-12-13T18:04:27.835Z,38.70
2022-12-13T18:07:35.085Z,41.00
2022-12-13T18:10:42.056Z,40.30
2022-12-13T18:13:49.652Z,39.10
2022-12-13T18:16:51.404Z,40.20
2022-12-13T18:19:58.864Z,40.20
2022-12-13T18:23:05.687Z,37.10
2022-12-13T18:26:13.152Z,37.00
2022-12-13T18:29:20.305Z,39.30
2022-12-13T18:32:27.250Z,37.80
2022-12-13T18:35:34.437Z,39.20
2022-12-13T18:38:41.383Z,40.90
2022-12-13T18:41:49.055Z,38.20
2022-12-13T18:44:56.786Z,38.90
2022-12-13T18:48:03.906Z,40.20
2022-12-13T18:51:11.506Z,38.80
2022-12-13T18:54:19.413Z,40.90
2022-12-13T18:57:26.442Z,44.20
2022-12-13T19:00:33.917Z,39.00
2022-12-13T19:03:41.117Z,40.20
2022-12-13T19:06:48.343Z,34.40
2022-12-13T19:09:56.002Z,38.80
2022-12-13T19:13:03.333Z,40.90
2022-12-13T19:16:10.870Z,39.80
2022-12-13T19:19:18.474Z,46.60
2022-12-13T19:22:26.006Z,41.80
2022-12-13T19:25:33.035Z,41.60
2022-12-13T19:28:40.730Z,39.00
2022-12-13T19:31:48.104Z,35.80
2022-12-13T19:34:55.567Z,39.40
2022-12-13T19:38:02.847Z,39.50
2022-12-13T19:41:10.720Z,39.40
2022-12-13T19:44:17.908Z,38.60
2022-12-13T19:47:25.078Z,32.40
2022-12-13T19:50:32.389Z,36.70
2022-12-13T19:53:39.569Z,37.20
2022-12-13T19:56:47.146Z,33.90
2022-12-13T19:59:54.886Z,36.00
2022-12-13T20:03:02.031Z,40.30
2022-12-13T20:06:09.625Z,42.50
2022-12-13T20:09:17.194Z,45.20
2022-12-13T20:12:24.035Z,39.20
2022-12-13T20:15:31.624Z,40.10
2022-12-13T20:18:38.693Z,39.30
2022-12-13T20:21:46.082Z,35.80
2022-12-13T20:24:53.747Z,39.30
2022-12-13T20:28:01.072Z,38.20
2022-12-13T20:31:08.402Z,44.90
2022-12-13T20:34:15.671Z,41.60
2022-12-13T20:37:22.592Z,44.50
2022-12-13T20:40:30.247Z,48.80
2022-12-13T20:43:37.548Z,45.00
2022-12-13T20:46:45.244Z,44.90
2022-12-13T20:49:52.553Z,44.30
2022-12-13T20:52:59.877Z,42.00
2022-12-13T20:56:07.356Z,43.80
2022-12-13T20:59:15.117Z,45.10
2022-12-13T21:02:22.354Z,43.60
2022-12-13T21:05:29.571Z,45.00
2022-12-13T21:08:36.968Z,42.10
2022-12-13T21:11:44.855Z,42.40
2022-12-13T21:14:52.393Z,38.70
2022-12-13T21:17:59.835Z,44.00
2022-12-13T21:21:07.373Z,43.00
2022-12-13T21:24:14.554Z,40.40
2022-12-13T21:27:21.899Z,41.10
2022-12-13T21:30:29.335Z,40.20
2022-12-13T21:33:36.054Z,42.20
2022-12-13T21:36:43.592Z,39.90
2022-12-13T21:39:51.274Z,43.60
2022-12-13T21:42:58.090Z,42.60
2022-12-13T21:46:05.063Z,44.00
2022-12-13T21:49:12.593Z,42.90
2022-12-13T21:52:19.599Z,45.70
2022-12-13T21:55:38.743Z,43.80
2022-12-13T21:58:31.893Z,44.50
2022-12-13T22:01:39.305Z,48.50
2022-12-13T22:04:46.676Z,44.00
2022-12-13T22:07:53.975Z,49.30
2022-12-13T22:11:01.571Z,44.80
2022-12-13T22:14:08.638Z,45.40
2022-12-13T22:17:16.240Z,48.90
2022-12-13T22:20:23.891Z,42.50
2022-12-13T22:23:30.782Z,43.90
2022-12-13T22:26:38.361Z,41.80
2022-12-13T22:29:45.782Z,41.90
2022-12-13T22:32:52.548Z,42.50
2022-12-13T22:35:59.986Z,40.70
2022-12-13T22:39:07.756Z,45.20
2022-12-13T22:42:14.590Z,40.20
2022-12-13T22:45:22.336Z,42.50
2022-12-13T22:48:29.856Z,43.60
2022-12-13T22:51:37.330Z,44.10
2022-12-13T22:54:45.032Z,39.10
2022-12-13T22:57:52.455Z,39.00
2022-12-13T23:00:59.839Z,39.50
2022-12-13T23:04:07.517Z,37.50
2022-12-13T23:07:14.874Z,38.60
2022-12-13T23:10:22.203Z,38.90
2022-12-13T23:13:29.297Z,37.90
2022-12-13T23:16:36.767Z,39.40
2022-12-13T23:19:49.621Z,35.40
2022-12-13T23:22:48.845Z,39.20
2022-12-13T23:25:56.343Z,38.30
2022-12-13T23:29:03.188Z,37.00
2022-12-13T23:32:10.788Z,38.10
2022-12-13T23:35:18.455Z,38.80
2022-12-13T23:38:25.717Z,39.90
2022-12-13T23:41:34.155Z,35.50
2022-12-13T23:44:34.125Z,35.30
2022-12-13T23:47:41.097Z,37.00
2022-12-13T23:50:48.719Z,37.70
2022-12-13T23:53:55.925Z,36.60
2022-12-13T23:57:03.143Z,31.80
